createdAt,value
2023-01-19T00:00:29.734Z,5.00
2023-01-19T00:02:56.211Z,5.63
2023-01-19T00:05:22.633Z,5.30
2023-01-19T00:07:49.065Z,5.22
2023-01-19T00:10:15.895Z,5.00
2023-01-19T00:12:42.390Z,4.63
2023-01-19T00:15:09.468Z,4.70
2023-01-19T00:17:36.085Z,4.50
2023-01-19T00:20:03.890Z,5.28
2023-01-19T00:22:30.364Z,4.97
2023-01-19T00:24:56.780Z,4.53
2023-01-19T00:27:23.356Z,4.20
2023-01-19T00:29:49.826Z,2.78
2023-01-19T00:32:17.786Z,1.67
2023-01-19T00:34:49.435Z,1.40
2023-01-19T00:37:17.293Z,1.00
2023-01-19T00:39:43.868Z,1.00
2023-01-19T00:42:32.192Z,1.25
2023-01-19T00:44:58.701Z,1.00
2023-01-19T00:47:25.346Z,1.42
2023-01-19T00:49:51.769Z,1.20
2023-01-19T00:52:18.129Z,1.10
2023-01-19T00:54:44.527Z,1.30
2023-01-19T00:57:10.933Z,2.40
2023-01-19T00:59:37.319Z,3.05
2023-01-19T01:02:03.933Z,3.30
2023-01-19T01:04:30.749Z,4.57
2023-01-19T01:06:57.274Z,4.50
2023-01-19T01:09:24.265Z,4.18
2023-01-19T01:11:50.691Z,5.15
2023-01-19T01:14:18.183Z,5.07
2023-01-19T01:16:44.718Z,4.80
2023-01-19T01:19:11.142Z,4.72
2023-01-19T01:21:37.501Z,4.10
2023-01-19T01:24:04.273Z,4.55
2023-01-19T01:26:30.833Z,4.10
2023-01-19T01:28:57.269Z,4.00
2023-01-19T01:31:23.714Z,4.28
2023-01-19T01:33:50.477Z,3.35
2023-01-19T01:36:18.933Z,3.17
2023-01-19T01:38:45.414Z,3.40
2023-01-19T01:41:12.157Z,3.22
2023-01-19T01:43:45.132Z,2.65
2023-01-19T01:46:12.258Z,2.47
2023-01-19T01:48:40.465Z,2.20
2023-01-19T01:51:25.090Z,2.27
2023-01-19T01:54:07.149Z,2.00
2023-01-19T01:56:40.193Z,1.80
2023-01-19T01:59:11.297Z,1.60
2023-01-19T02:01:56.721Z,1.10
2023-01-19T02:04:24.009Z,0.90
2023-01-19T02:07:09.782Z,1.20
2023-01-19T02:09:56.175Z,0.70
2023-01-19T02:12:42.003Z,0.80
2023-01-19T02:15:17.007Z,0.52
2023-01-19T02:17:43.430Z,0.30
2023-01-19T02:20:11.104Z,0.30
2023-01-19T02:22:46.539Z,0.40
2023-01-19T02:25:13.436Z,0.22
2023-01-19T02:27:39.872Z,0.40
2023-01-19T02:30:07.914Z,0.40
2023-01-19T02:32:34.266Z,0.40
2023-01-19T02:35:00.868Z,0.20
2023-01-19T02:37:31.126Z,0.32
2023-01-19T02:40:01.569Z,0.35
2023-01-19T02:42:37.323Z,0.40
2023-01-19T02:45:06.781Z,0.28
2023-01-19T02:47:40.671Z,0.20
2023-01-19T02:50:39.065Z,0.40
2023-01-19T02:53:24.955Z,0.30
2023-01-19T02:56:03.309Z,0.70
2023-01-19T02:58:53.756Z,0.30
2023-01-19T03:01:38.785Z,0.68
2023-01-19T03:04:42.725Z,0.50
2023-01-19T03:07:23.320Z,0.40
2023-01-19T03:09:58.524Z,0.50
2023-01-19T03:12:46.860Z,0.38
2023-01-19T03:15:43.118Z,0.20
2023-01-19T03:18:12.419Z,0.20
2023-01-19T03:20:40.185Z,0.68
2023-01-19T03:23:10.522Z,0.40
2023-01-19T03:25:39.770Z,0.20
2023-01-19T03:28:06.233Z,0.28
2023-01-19T03:30:39.287Z,0.43
2023-01-19T03:33:14.639Z,0.20
2023-01-19T03:35:45.887Z,0.40
2023-01-19T03:38:15.934Z,0.13
2023-01-19T03:40:43.567Z,0.40
2023-01-19T03:43:10.828Z,0.20
2023-01-19T03:45:39.244Z,0.20
2023-01-19T03:48:06.484Z,0.20
2023-01-19T03:50:32.860Z,0.10
2023-01-19T03:53:06.007Z,0.30
2023-01-19T03:55:32.860Z,0.30
2023-01-19T03:57:59.204Z,0.22
2023-01-19T04:00:26.078Z,0.20
2023-01-19T04:02:52.600Z,0.30
2023-01-19T04:05:19.237Z,0.35
2023-01-19T04:07:48.731Z,0.20
2023-01-19T04:10:17.067Z,0.32
2023-01-19T04:12:43.378Z,0.30
2023-01-19T04:15:09.807Z,0.30
2023-01-19T04:17:36.265Z,0.32
2023-01-19T04:20:02.646Z,0.40
2023-01-19T04:22:29.505Z,0.30
2023-01-19T04:24:56.190Z,0.30
2023-01-19T04:27:22.823Z,0.30
2023-01-19T04:29:49.242Z,0.55
2023-01-19T04:32:15.683Z,0.20
2023-01-19T04:34:42.025Z,0.38
2023-01-19T04:37:11.060Z,0.10
2023-01-19T04:39:37.374Z,0.20
2023-01-19T04:42:03.855Z,0.20
2023-01-19T04:44:30.151Z,0.25
2023-01-19T04:46:56.506Z,0.30
2023-01-19T04:49:22.836Z,0.30
2023-01-19T04:51:49.394Z,0.20
2023-01-19T04:54:15.835Z,0.30
2023-01-19T04:56:42.192Z,0.28
2023-01-19T04:59:08.576Z,0.30
2023-01-19T05:01:35.311Z,0.20
2023-01-19T05:04:03.671Z,0.30
2023-01-19T05:06:30.016Z,0.20
2023-01-19T05:08:56.431Z,0.52
2023-01-19T05:11:22.889Z,0.90
2023-01-19T05:13:50.930Z,0.30
2023-01-19T05:16:17.885Z,0.30
2023-01-19T05:18:44.340Z,0.25
2023-01-19T05:21:10.764Z,0.60
2023-01-19T05:23:37.127Z,0.65
2023-01-19T05:26:03.695Z,0.20
2023-01-19T05:28:31.917Z,0.65
2023-01-19T05:30:58.746Z,0.68
2023-01-19T05:33:26.020Z,0.30
2023-01-19T05:35:54.136Z,0.80
2023-01-19T05:38:34.334Z,0.57
2023-01-19T05:41:02.404Z,0.70
2023-01-19T05:43:28.760Z,0.52
2023-01-19T05:45:55.111Z,0.68
2023-01-19T05:48:21.719Z,0.70
2023-01-19T05:50:49.480Z,1.07
2023-01-19T05:53:17.147Z,0.30
2023-01-19T05:55:43.700Z,0.85
2023-01-19T05:58:10.126Z,0.68
2023-01-19T06:00:36.599Z,1.15
2023-01-19T06:03:03.497Z,1.20
2023-01-19T06:05:30.298Z,1.15
2023-01-19T06:07:57.088Z,1.95
2023-01-19T06:10:23.659Z,1.13
2023-01-19T06:12:51.668Z,0.75
2023-01-19T06:15:18.607Z,0.80
2023-01-19T06:17:45.012Z,1.02
2023-01-19T06:20:13.947Z,0.55
2023-01-19T06:22:40.459Z,0.60
2023-01-19T06:25:07.092Z,1.30
2023-01-19T06:27:33.407Z,0.67
2023-01-19T06:29:59.793Z,0.70
2023-01-19T06:32:26.181Z,0.82
2023-01-19T06:34:54.012Z,0.70
2023-01-19T06:37:20.552Z,0.70
2023-01-19T06:39:46.909Z,1.10
2023-01-19T06:42:13.343Z,0.55
2023-01-19T06:44:47.143Z,1.00
2023-01-19T06:47:16.352Z,0.75
2023-01-19T06:49:43.065Z,0.70
2023-01-19T06:52:11.316Z,1.07
2023-01-19T06:54:37.659Z,0.70
2023-01-19T06:57:04.366Z,0.95
2023-01-19T06:59:31.697Z,0.77
2023-01-19T07:01:58.979Z,0.85
2023-01-19T07:04:26.984Z,1.10
2023-01-19T07:06:53.390Z,1.05
2023-01-19T07:09:20.508Z,0.90
2023-01-19T07:11:48.337Z,1.15
2023-01-19T07:14:15.557Z,1.63
2023-01-19T07:16:42.192Z,0.83
2023-01-19T07:19:10.633Z,0.88
2023-01-19T07:21:37.192Z,0.82
2023-01-19T07:24:03.655Z,1.25
2023-01-19T07:26:30.868Z,1.50
2023-01-19T07:28:57.305Z,0.90
2023-01-19T07:31:23.763Z,1.25
2023-01-19T07:33:50.252Z,0.52
2023-01-19T07:36:16.599Z,0.70
2023-01-19T07:38:42.972Z,1.13
2023-01-19T07:41:10.708Z,0.73
2023-01-19T07:43:37.103Z,1.25
2023-01-19T07:46:05.229Z,0.93
2023-01-19T07:48:31.759Z,1.02
2023-01-19T07:51:05.570Z,1.75
2023-01-19T07:53:32.739Z,1.67
2023-01-19T07:55:59.122Z,1.17
2023-01-19T07:58:26.445Z,1.15
2023-01-19T08:00:53.040Z,1.45
2023-01-19T08:03:19.513Z,2.15
2023-01-19T08:05:50.627Z,1.60
2023-01-19T08:08:17.268Z,1.48
2023-01-19T08:10:43.763Z,1.23
2023-01-19T08:13:10.155Z,1.92
2023-01-19T08:15:36.584Z,1.20
2023-01-19T08:18:05.666Z,1.40
2023-01-19T08:20:32.340Z,1.42
2023-01-19T08:23:02.859Z,1.52
2023-01-19T08:25:44.499Z,1.55
2023-01-19T08:28:13.124Z,1.95
2023-01-19T08:30:40.652Z,1.10
2023-01-19T08:33:09.841Z,1.05
2023-01-19T08:35:42.080Z,1.58
2023-01-19T08:38:09.543Z,1.48
2023-01-19T08:40:38.413Z,1.55
2023-01-19T08:43:07.888Z,1.63
2023-01-19T08:45:48.082Z,1.48
2023-01-19T08:48:16.413Z,1.98
2023-01-19T08:50:45.331Z,1.83
2023-01-19T08:53:11.720Z,1.65
2023-01-19T08:55:38.189Z,1.23
2023-01-19T08:58:05.876Z,1.60
2023-01-19T09:00:37.968Z,1.38
2023-01-19T09:03:06.456Z,1.13
2023-01-19T09:05:37.130Z,1.60
2023-01-19T09:08:06.332Z,1.57
2023-01-19T09:10:35.877Z,1.50
2023-01-19T09:13:04.962Z,1.40
2023-01-19T09:15:35.648Z,1.00
2023-01-19T09:18:03.295Z,1.25
2023-01-19T09:20:31.256Z,1.00
2023-01-19T09:22:58.370Z,1.02
2023-01-19T09:25:25.523Z,0.88
2023-01-19T09:27:52.349Z,0.65
2023-01-19T09:30:19.448Z,0.73
2023-01-19T09:32:46.278Z,0.73
2023-01-19T09:35:13.047Z,0.75
2023-01-19T09:37:39.750Z,1.17
2023-01-19T09:40:06.719Z,0.60
2023-01-19T09:42:43.826Z,0.98
2023-01-19T09:45:29.309Z,1.40
2023-01-19T09:47:58.457Z,0.70
2023-01-19T09:50:30.524Z,0.73
2023-01-19T09:53:14.055Z,0.55
2023-01-19T09:55:42.529Z,1.25
2023-01-19T09:58:16.560Z,0.80
2023-01-19T10:00:47.786Z,0.95
2023-01-19T10:03:17.823Z,0.50
2023-01-19T10:06:03.675Z,0.85
2023-01-19T10:09:05.299Z,0.70
2023-01-19T10:11:51.461Z,0.63
2023-01-19T10:14:27.491Z,0.68
2023-01-19T10:17:03.327Z,1.08
2023-01-19T10:19:37.760Z,0.75
2023-01-19T10:22:23.143Z,1.00
2023-01-19T10:24:56.479Z,0.40
2023-01-19T10:27:35.089Z,0.63
2023-01-19T10:30:02.133Z,0.75
2023-01-19T10:32:35.701Z,0.50
2023-01-19T10:35:23.388Z,0.60
2023-01-19T10:37:56.236Z,0.70
2023-01-19T10:40:34.762Z,0.70
2023-01-19T10:43:01.680Z,0.70
2023-01-19T10:45:31.324Z,0.55
2023-01-19T10:48:04.493Z,0.60
2023-01-19T10:50:37.408Z,0.50
2023-01-19T10:53:05.944Z,0.30
2023-01-19T10:55:38.125Z,0.88
2023-01-19T10:58:06.387Z,0.50
2023-01-19T11:00:43.047Z,0.77
2023-01-19T11:03:29.784Z,0.60
2023-01-19T11:06:20.512Z,0.77
2023-01-19T11:08:50.184Z,1.05
2023-01-19T11:11:18.321Z,0.70
2023-01-19T11:13:45.411Z,0.55
2023-01-19T11:16:30.698Z,0.70
2023-01-19T11:18:58.291Z,0.50
2023-01-19T11:21:26.893Z,0.47
2023-01-19T11:24:02.254Z,0.30
2023-01-19T11:26:44.328Z,0.45
2023-01-19T11:29:26.485Z,0.33
2023-01-19T11:31:54.957Z,0.60
2023-01-19T11:34:31.474Z,0.50
2023-01-19T11:37:03.410Z,0.60
2023-01-19T11:39:32.392Z,0.77
2023-01-19T11:42:02.073Z,0.60
2023-01-19T11:44:39.090Z,0.40
2023-01-19T11:47:14.480Z,0.50
2023-01-19T11:50:01.526Z,0.30
2023-01-19T11:52:58.660Z,0.50
2023-01-19T11:55:46.930Z,0.60
2023-01-19T11:58:16.239Z,0.40
2023-01-19T12:00:46.279Z,0.45
2023-01-19T12:03:20.701Z,0.40
2023-01-19T12:05:51.509Z,0.63
2023-01-19T12:08:26.870Z,0.30
2023-01-19T12:10:57.220Z,0.50
2023-01-19T12:13:26.525Z,0.50
2023-01-19T12:16:24.461Z,0.40
2023-01-19T12:19:25.113Z,0.45
2023-01-19T12:21:52.538Z,0.30
2023-01-19T12:24:36.507Z,0.82
2023-01-19T12:27:18.244Z,0.73
2023-01-19T12:29:46.368Z,0.50
2023-01-19T12:32:18.517Z,0.43
2023-01-19T12:34:49.263Z,0.60
2023-01-19T12:37:28.727Z,0.32
2023-01-19T12:39:57.141Z,0.40
2023-01-19T12:42:24.590Z,0.50
2023-01-19T12:45:06.625Z,0.60
2023-01-19T12:47:34.173Z,0.30
2023-01-19T12:50:07.527Z,0.38
2023-01-19T12:52:51.304Z,0.43
2023-01-19T12:55:38.933Z,1.63
2023-01-19T12:58:18.507Z,0.63
2023-01-19T13:00:47.109Z,0.50
2023-01-19T13:03:17.343Z,0.60
2023-01-19T13:05:43.673Z,0.70
2023-01-19T13:08:09.996Z,0.47
2023-01-19T13:11:10.691Z,0.73
2023-01-19T13:13:43.845Z,0.50
2023-01-19T13:16:19.508Z,0.38
2023-01-19T13:18:48.424Z,0.35
2023-01-19T13:21:27.560Z,0.47
2023-01-19T13:23:59.174Z,0.40
2023-01-19T13:26:28.773Z,0.70
2023-01-19T13:29:02.668Z,0.40
2023-01-19T13:31:35.651Z,0.40
2023-01-19T13:34:03.958Z,0.30
2023-01-19T13:36:42.260Z,0.43
2023-01-19T13:39:23.936Z,0.40
2023-01-19T13:41:54.075Z,0.50
2023-01-19T13:44:23.654Z,0.40
2023-01-19T13:46:51.873Z,0.50
2023-01-19T13:49:24.326Z,0.50
2023-01-19T13:52:12.723Z,0.60
2023-01-19T13:55:03.517Z,0.50
2023-01-19T13:57:40.097Z,0.60
2023-01-19T14:00:11.801Z,0.60
2023-01-19T14:02:50.602Z,0.60
2023-01-19T14:05:29.868Z,0.30
2023-01-19T14:08:08.337Z,0.30
2023-01-19T14:10:37.375Z,0.30
2023-01-19T14:13:15.453Z,0.43
2023-01-19T14:15:42.894Z,0.40
2023-01-19T14:18:16.218Z,0.40
2023-01-19T14:20:57.254Z,0.55
2023-01-19T14:23:45.449Z,0.40
2023-01-19T14:26:40.111Z,0.30
2023-01-19T14:29:21.460Z,0.95
2023-01-19T14:32:01.152Z,0.67
2023-01-19T14:34:41.339Z,0.35
2023-01-19T14:37:26.435Z,0.30
2023-01-19T14:39:58.164Z,0.93
2023-01-19T14:42:28.439Z,0.55
2023-01-19T14:44:56.969Z,0.40
2023-01-19T14:47:38.965Z,0.40
2023-01-19T14:50:10.367Z,0.30
2023-01-19T14:52:40.901Z,0.45
2023-01-19T14:55:19.899Z,0.50
2023-01-19T14:57:46.207Z,0.50
2023-01-19T15:00:17.354Z,0.50
2023-01-19T15:02:45.024Z,0.47
2023-01-19T15:05:11.604Z,0.43
2023-01-19T15:07:40.390Z,0.65
2023-01-19T15:10:17.445Z,0.57
2023-01-19T15:12:44.120Z,0.40
2023-01-19T15:15:16.066Z,0.80
2023-01-19T15:17:42.811Z,0.45
2023-01-19T15:20:15.884Z,0.30
2023-01-19T15:22:42.387Z,0.30
2023-01-19T15:25:12.497Z,0.30
2023-01-19T15:27:39.005Z,0.50
2023-01-19T15:30:14.067Z,1.30
2023-01-19T15:32:43.717Z,0.30
2023-01-19T15:35:18.960Z,0.50
2023-01-19T15:37:46.023Z,0.60
2023-01-19T15:40:13.224Z,0.40
2023-01-19T15:42:39.861Z,0.30
2023-01-19T15:45:27.829Z,0.55
2023-01-19T15:47:54.196Z,0.47
2023-01-19T15:50:20.532Z,0.35
2023-01-19T15:52:46.960Z,0.85
2023-01-19T15:55:15.799Z,0.30
2023-01-19T15:57:42.160Z,0.40
2023-01-19T16:00:09.701Z,0.37
2023-01-19T16:02:37.031Z,0.70
2023-01-19T16:05:03.782Z,0.60
2023-01-19T16:07:30.143Z,0.63
2023-01-19T16:09:56.550Z,0.77
2023-01-19T16:12:22.976Z,1.07
2023-01-19T16:14:49.381Z,0.70
2023-01-19T16:17:15.733Z,0.95
2023-01-19T16:19:42.046Z,0.80
2023-01-19T16:22:10.970Z,0.80
2023-01-19T16:24:37.389Z,0.80
2023-01-19T16:27:03.988Z,1.15
2023-01-19T16:29:31.020Z,1.13
2023-01-19T16:31:57.478Z,0.82
2023-01-19T16:34:25.336Z,1.00
2023-01-19T16:36:52.085Z,1.10
2023-01-19T16:39:18.470Z,1.02
2023-01-19T16:41:45.263Z,1.33
2023-01-19T16:44:13.625Z,0.93
2023-01-19T16:46:42.364Z,0.80
2023-01-19T16:49:21.020Z,1.10
2023-01-19T16:51:48.056Z,1.40
2023-01-19T16:54:16.672Z,1.63
2023-01-19T16:56:43.245Z,2.35
2023-01-19T16:59:12.274Z,2.60
2023-01-19T17:01:38.934Z,2.93
2023-01-19T17:04:05.457Z,3.58
2023-01-19T17:06:32.211Z,3.58
2023-01-19T17:08:59.265Z,3.70
2023-01-19T17:11:28.336Z,3.50
2023-01-19T17:13:57.199Z,3.77
2023-01-19T17:16:25.045Z,4.35
2023-01-19T17:18:51.671Z,4.90
2023-01-19T17:21:19.405Z,5.00
2023-01-19T17:23:47.993Z,5.05
2023-01-19T17:26:15.507Z,4.83
2023-01-19T17:28:42.138Z,5.28
2023-01-19T17:31:15.837Z,5.28
2023-01-19T17:33:46.686Z,4.47
2023-01-19T17:36:16.008Z,4.57
2023-01-19T17:38:42.788Z,3.90
2023-01-19T17:41:16.348Z,4.18
2023-01-19T17:43:43.685Z,3.63
2023-01-19T17:46:11.257Z,3.90
2023-01-19T17:48:38.608Z,3.22
2023-01-19T17:51:07.640Z,3.70
2023-01-19T17:53:35.693Z,3.33
2023-01-19T17:56:03.850Z,4.55
2023-01-19T17:58:31.345Z,4.72
2023-01-19T18:00:58.275Z,6.70
2023-01-19T18:03:24.946Z,9.57
2023-01-19T18:05:55.511Z,9.57
2023-01-19T18:08:22.203Z,8.50
2023-01-19T18:10:59.645Z,8.90
2023-01-19T18:13:26.215Z,8.05
2023-01-19T18:15:58.935Z,7.53
2023-01-19T18:18:25.987Z,6.95
2023-01-19T18:20:52.354Z,7.53
2023-01-19T18:23:18.706Z,6.70
2023-01-19T18:25:45.036Z,5.68
2023-01-19T18:28:11.367Z,5.27
2023-01-19T18:30:37.968Z,5.88
2023-01-19T18:33:04.427Z,5.50
2023-01-19T18:35:30.805Z,5.32
2023-01-19T18:37:58.432Z,5.63
2023-01-19T18:40:25.304Z,6.07
2023-01-19T18:42:51.665Z,5.95
2023-01-19T18:45:18.075Z,6.40
2023-01-19T18:47:44.468Z,6.35
2023-01-19T18:50:13.971Z,6.50
2023-01-19T18:52:40.495Z,7.20
2023-01-19T18:55:07.108Z,7.60
2023-01-19T18:57:35.663Z,8.38
2023-01-19T19:00:03.516Z,7.70
2023-01-19T19:02:29.967Z,5.55
2023-01-19T19:04:56.317Z,5.33
2023-01-19T19:07:22.693Z,5.18
2023-01-19T19:09:49.043Z,4.18
2023-01-19T19:12:15.385Z,3.83
2023-01-19T19:14:41.865Z,4.18
2023-01-19T19:17:08.245Z,3.90
2023-01-19T19:19:34.747Z,3.83
2023-01-19T19:22:01.222Z,3.83
2023-01-19T19:24:27.609Z,3.50
2023-01-19T19:26:53.971Z,3.35
2023-01-19T19:29:20.345Z,3.03
2023-01-19T19:31:46.850Z,5.57
2023-01-19T19:34:13.384Z,3.58
2023-01-19T19:36:40.029Z,2.90
2023-01-19T19:39:06.451Z,3.47
2023-01-19T19:41:32.775Z,2.53
2023-01-19T19:43:59.453Z,2.00
2023-01-19T19:46:26.696Z,1.33
2023-01-19T19:48:54.073Z,2.15
2023-01-19T19:51:27.030Z,1.38
2023-01-19T19:54:01.267Z,1.10
2023-01-19T19:56:30.444Z,1.10
2023-01-19T19:58:58.912Z,1.20
2023-01-19T20:01:33.567Z,0.98
2023-01-19T20:04:06.763Z,0.80
2023-01-19T20:06:38.468Z,0.83
2023-01-19T20:09:06.546Z,0.50
2023-01-19T20:11:33.328Z,0.70
2023-01-19T20:13:59.919Z,0.55
2023-01-19T20:16:26.442Z,0.50
2023-01-19T20:18:54.881Z,0.40
2023-01-19T20:21:30.740Z,0.40
2023-01-19T20:24:00.992Z,0.50
2023-01-19T20:26:31.754Z,0.40
2023-01-19T20:29:00.300Z,0.40
2023-01-19T20:31:32.934Z,0.40
2023-01-19T20:34:01.001Z,0.50
2023-01-19T20:36:28.778Z,0.57
2023-01-19T20:38:56.339Z,0.63
2023-01-19T20:41:24.218Z,0.40
2023-01-19T20:43:51.382Z,0.20
2023-01-19T20:46:18.367Z,0.30
2023-01-19T20:48:50.561Z,0.17
2023-01-19T20:51:18.118Z,0.25
2023-01-19T20:53:44.569Z,0.20
2023-01-19T20:56:12.813Z,0.20
2023-01-19T20:58:40.087Z,0.30
2023-01-19T21:01:18.847Z,0.35
2023-01-19T21:03:45.442Z,0.60
2023-01-19T21:06:12.347Z,0.80
2023-01-19T21:08:39.317Z,1.50
2023-01-19T21:11:06.773Z,1.65
2023-01-19T21:13:34.506Z,3.92
2023-01-19T21:16:01.279Z,1.60
2023-01-19T21:18:27.901Z,1.48
2023-01-19T21:20:57.539Z,2.13
2023-01-19T21:23:27.856Z,2.28
2023-01-19T21:25:57.398Z,1.90
2023-01-19T21:28:23.890Z,2.00
2023-01-19T21:30:51.802Z,3.30
2023-01-19T21:33:19.038Z,2.20
2023-01-19T21:35:55.647Z,2.35
2023-01-19T21:38:23.373Z,2.70
2023-01-19T21:40:52.638Z,2.13
2023-01-19T21:43:20.403Z,1.63
2023-01-19T21:45:47.672Z,1.80
2023-01-19T21:48:14.964Z,1.73
2023-01-19T21:50:41.351Z,1.73
2023-01-19T21:53:10.457Z,2.00
2023-01-19T21:55:37.682Z,2.13
2023-01-19T21:58:04.735Z,2.03
2023-01-19T22:00:31.647Z,2.00
2023-01-19T22:03:03.830Z,2.33
2023-01-19T22:05:36.541Z,2.60
2023-01-19T22:08:03.853Z,3.60
2023-01-19T22:10:30.237Z,2.97
2023-01-19T22:12:56.629Z,3.75
2023-01-19T22:15:22.997Z,4.00
2023-01-19T22:17:49.357Z,4.55
2023-01-19T22:20:15.884Z,6.07
2023-01-19T22:22:42.199Z,4.27
2023-01-19T22:25:08.961Z,3.17
2023-01-19T22:27:37.270Z,3.38
2023-01-19T22:30:03.809Z,3.10
2023-01-19T22:32:31.368Z,3.53
2023-01-19T22:34:57.769Z,2.50
2023-01-19T22:37:24.222Z,3.03
2023-01-19T22:39:50.667Z,3.13
2023-01-19T22:42:17.101Z,3.45
2023-01-19T22:44:43.521Z,3.00
2023-01-19T22:47:10.073Z,3.23
2023-01-19T22:49:36.456Z,2.97
2023-01-19T22:52:02.836Z,3.50
2023-01-19T22:54:29.901Z,3.20
2023-01-19T22:56:56.287Z,3.40
2023-01-19T22:59:22.666Z,3.20
2023-01-19T23:01:49.290Z,3.17
2023-01-19T23:04:16.087Z,3.38
2023-01-19T23:06:43.239Z,3.25
2023-01-19T23:09:14.441Z,3.40
2023-01-19T23:11:43.983Z,2.83
2023-01-19T23:14:16.284Z,3.30
2023-01-19T23:16:42.655Z,3.40
2023-01-19T23:19:11.793Z,3.33
2023-01-19T23:21:38.168Z,3.05
2023-01-19T23:24:05.030Z,3.10
2023-01-19T23:26:37.768Z,3.03
2023-01-19T23:29:07.237Z,2.88
2023-01-19T23:31:36.179Z,2.95
2023-01-19T23:34:05.668Z,3.00
2023-01-19T23:36:33.870Z,3.20
2023-01-19T23:39:26.601Z,3.22
2023-01-19T23:41:52.989Z,3.00
2023-01-19T23:44:19.531Z,3.05
2023-01-19T23:46:46.491Z,2.80
2023-01-19T23:49:13.376Z,2.70
2023-01-19T23:51:40.836Z,2.92
2023-01-19T23:54:07.477Z,2.45
2023-01-19T23:56:36.437Z,2.42
2023-01-19T23:59:14.302Z,2.63
